Preston, GA (31824)

7:01 PM EDT on July 30, 2014 (GMT -0400)
Wildwood Circle (KGAAMERI2) Elev 402 ft | 32.06 °N, 84.21 °W | Change Station

Current weather conditions updated 1 minute ago

Clear
Clear
81.1 °F
Feels Like 82 °F
N
0.0
Wind Variable Wind from North
Gusts 0.0 mph

Tomorrow is forecast to be nearly the same temperature as today.

Today
High -- | Low -- °F
--% Chance of Precip.
Yesterday
High -- | Low -- °F
Precip. -- in
6:52 AM 8:36 PM
Waxing Crescent, 14% visible
Pressure 30.00 in
Visibility 10.0 miles
Clouds Clear
Heat Index 82 °F
Dew Point 60 °F
Humidity 48%
Rainfall 0.00 in
Snow Depth Not available.
UV 1 out of 12
Pollen 5.00 out of 12
Air Quality Not available.
Flu Activity Not available.
METAR KACJ 302255Z AUTO 30005KT 10SM CLR 28/13 A3000 RMK AO2

More Conditions Fewer Conditions

Pressure 30.00 in
Visibility 10.0 miles
Clouds Clear
Heat Index 82 °F
Dew Point 60 °F
Humidity 48%
Rainfall 0.00 in
Snow Depth Not available.
UV 1 out of 12
Pollen 5.00 out of 12
Air Quality Not available.
Flu Activity Not available.
METAR KACJ 302255Z AUTO 30005KT 10SM CLR 28/13 A3000 RMK AO2

More Conditions Fewer Conditions

10-Day Weather Forecast

Almanac

Astronomy

Jul. 30, 2014 Rise Set
Actual Time 6:52 AM EDT 8:36 PM EDT
Civil Twilight 6:25 AM EDT 9:03 PM EDT
Nautical Twilight 5:52 AM EDT 9:35 PM EDT
Astronomical Twilight 5:18 AM EDT 10:09 PM EDT
Moon 10:07 AM EDT 10:35 PM EDT
Length of Visible Light 14h 38m
Length of Day
13h 44m
Tomorrow will be 1m 25s shorter.
Waxing Crescent, 14% of the Moon is Illuminated
Today
Waxing Crescent
Aug 3
First Quarter
Aug 10
Full
Aug 17
Last Quarter
Aug 25
New

Today's Extremes

State Highs State Lows

Community

WunderPhotos

Upload Photos

1,739,240 photos uploaded!

Nearby

Snow Depth

Station Depth Elevation
No new snow has been reported.

Earthquake Activity

City Distance Mag. Time & Date
No recent earthquake activity has been reported nearby.
Minimum magnitude displayed is 2.5.

Coastal Water Temperatures

Place Temperature
No Stations Reporting

Nearby Weather Stations

Station Location Temp. Heat Index Dew Point Humidity Wind Precip. Elev Updated Type
Wildwood Circle, Americus, GA 81.1 °F 82 °F 60 °F 48% North  at  0.0 mph 0.00 in / hr 402 ft 7:00 PM EDT Normal
RAWS AMERICUS/PLAINS GA, Americus, GA 87 °F 85 °F 55 °F 34% West  at  5 mph 0.00 in / hr 456 ft 6:03 PM EDT MADIS

Show More Stations Show Fewer Stations